createdAt,value
2019-03-18T00:02:25.507Z,6.12
2019-03-18T00:04:56.965Z,6.09
2019-03-18T00:07:27.487Z,6.11
2019-03-18T00:09:58.031Z,6.08
2019-03-18T00:12:28.547Z,6.09
2019-03-18T00:15:01.609Z,6.07
2019-03-18T00:17:31.213Z,6.12
2019-03-18T00:20:05.174Z,6.11
2019-03-18T00:22:35.587Z,6.08
2019-03-18T00:25:10.305Z,6.09
2019-03-18T00:27:40.629Z,6.09
2019-03-18T00:30:15.580Z,6.13
2019-03-18T00:32:46.111Z,6.18
2019-03-18T00:35:17.774Z,6.07
2019-03-18T00:37:48.281Z,6.06
2019-03-18T00:40:20.824Z,6.10
2019-03-18T00:42:51.181Z,6.08
2019-03-18T00:45:22.648Z,6.12
2019-03-18T00:47:54.091Z,6.13
2019-03-18T00:50:25.544Z,6.14
2019-03-18T00:52:56.989Z,6.12
2019-03-18T00:55:27.538Z,6.06
2019-03-18T00:57:58.967Z,6.09
2019-03-18T01:00:29.234Z,6.11
2019-03-18T01:02:59.726Z,6.06
2019-03-18T01:05:30.270Z,6.07
2019-03-18T01:08:00.782Z,6.07
2019-03-18T01:10:31.046Z,6.03
2019-03-18T01:13:02.457Z,5.97
2019-03-18T01:15:32.997Z,6.03
2019-03-18T01:18:03.321Z,6.02
2019-03-18T01:20:34.985Z,5.97
2019-03-18T01:23:06.409Z,6.00
2019-03-18T01:25:36.686Z,5.98
2019-03-18T01:28:08.398Z,5.87
2019-03-18T01:30:38.944Z,5.92
2019-03-18T01:33:09.459Z,5.92
2019-03-18T01:35:40.922Z,5.90
2019-03-18T01:38:11.439Z,5.91
2019-03-18T01:40:41.699Z,5.86
2019-03-18T01:43:18.960Z,5.87
2019-03-18T01:45:49.489Z,5.82
2019-03-18T01:48:20.008Z,5.83
2019-03-18T01:50:50.563Z,5.83
2019-03-18T01:53:21.086Z,5.78
2019-03-18T01:55:52.550Z,5.80
2019-03-18T01:58:23.044Z,5.78
2019-03-18T02:00:54.516Z,5.73
2019-03-18T02:03:25.968Z,5.76
2019-03-18T02:05:56.500Z,5.70
2019-03-18T02:08:27.012Z,5.72
2019-03-18T02:11:03.393Z,5.72
2019-03-18T02:13:33.907Z,5.71
2019-03-18T02:16:04.451Z,5.70
2019-03-18T02:18:34.966Z,5.71
2019-03-18T02:21:05.517Z,5.65
2019-03-18T02:23:36.026Z,5.68
2019-03-18T02:26:06.580Z,5.68
2019-03-18T02:28:37.077Z,5.67
2019-03-18T02:31:08.553Z,5.68
2019-03-18T02:33:39.064Z,5.69
2019-03-18T02:36:09.618Z,5.66
2019-03-18T02:38:42.278Z,5.68
2019-03-18T02:41:12.827Z,5.61
2019-03-18T02:43:43.350Z,5.62
2019-03-18T02:46:13.874Z,5.64
2019-03-18T02:48:44.393Z,5.64
2019-03-18T02:51:14.943Z,5.63
2019-03-18T02:53:46.379Z,5.58
2019-03-18T02:56:18.152Z,5.58
2019-03-18T02:58:48.665Z,5.57
2019-03-18T03:01:19.209Z,5.54
2019-03-18T03:03:50.638Z,5.50
2019-03-18T03:06:22.115Z,5.51
2019-03-18T03:08:53.540Z,5.46
2019-03-18T03:11:25.016Z,5.41
2019-03-18T03:13:55.532Z,5.41
2019-03-18T03:16:27.726Z,5.38
2019-03-18T03:18:59.658Z,5.36
2019-03-18T03:21:30.207Z,5.37
2019-03-18T03:24:00.722Z,5.34
2019-03-18T03:26:31.270Z,5.32
2019-03-18T03:29:01.779Z,5.32
2019-03-18T03:31:32.343Z,5.28
2019-03-18T03:34:02.834Z,5.23
2019-03-18T03:36:34.321Z,5.21
2019-03-18T03:39:07.078Z,5.19
2019-03-18T03:41:37.530Z,5.19
2019-03-18T03:44:07.863Z,5.17
2019-03-18T03:46:43.761Z,5.13
2019-03-18T03:49:10.311Z,5.16
2019-03-18T03:51:40.580Z,5.11
2019-03-18T03:54:11.071Z,5.10
2019-03-18T03:56:41.338Z,5.11
2019-03-18T03:59:11.845Z,5.06
2019-03-18T04:01:42.369Z,5.02
2019-03-18T04:04:13.804Z,5.00
2019-03-18T04:06:45.271Z,4.97
2019-03-18T04:09:15.783Z,4.99
2019-03-18T04:11:46.325Z,4.98
2019-03-18T04:14:17.766Z,4.95
2019-03-18T04:17:00.770Z,4.95
2019-03-18T04:19:20.359Z,4.94
2019-03-18T04:21:51.161Z,4.91
2019-03-18T04:24:21.723Z,4.89
2019-03-18T04:26:52.267Z,4.83
2019-03-18T04:29:23.707Z,4.78
2019-03-18T04:31:55.183Z,4.74
2019-03-18T04:34:26.608Z,4.69
2019-03-18T04:36:57.165Z,4.68
2019-03-18T04:39:28.596Z,4.66
2019-03-18T04:41:59.146Z,4.64
2019-03-18T04:44:30.039Z,4.64
2019-03-18T04:47:00.508Z,4.60
2019-03-18T04:49:31.019Z,4.58
2019-03-18T04:52:01.572Z,4.50
2019-03-18T04:54:32.086Z,4.49
2019-03-18T04:57:02.617Z,4.47
2019-03-18T04:59:34.055Z,4.47
2019-03-18T05:02:04.609Z,4.48
2019-03-18T05:04:37.265Z,4.46
2019-03-18T05:07:07.810Z,4.45
2019-03-18T05:09:38.327Z,4.51
2019-03-18T05:12:08.877Z,4.60
2019-03-18T05:14:40.306Z,4.63
2019-03-18T05:17:10.872Z,4.63
2019-03-18T05:19:42.295Z,4.64
2019-03-18T05:22:12.841Z,4.65
2019-03-18T05:24:43.365Z,4.68
2019-03-18T05:27:13.899Z,4.74
2019-03-18T05:29:46.165Z,4.82
2019-03-18T05:32:16.491Z,4.81
2019-03-18T05:34:55.854Z,4.89
2019-03-18T05:37:28.290Z,4.97
2019-03-18T05:39:59.738Z,5.09
2019-03-18T05:42:32.531Z,5.24
2019-03-18T05:45:06.899Z,5.47
2019-03-18T05:47:39.995Z,5.72
2019-03-18T05:50:11.497Z,5.92
2019-03-18T05:52:41.923Z,5.95
2019-03-18T05:55:12.461Z,6.05
2019-03-18T05:57:43.889Z,6.05
2019-03-18T06:00:14.886Z,6.16
2019-03-18T06:02:47.386Z,6.29
2019-03-18T06:05:17.951Z,8.54
2019-03-18T06:07:48.480Z,9.63
2019-03-18T06:10:18.993Z,8.79
2019-03-18T06:12:49.548Z,8.25
2019-03-18T06:15:20.074Z,8.20
2019-03-18T06:17:52.848Z,10.90
2019-03-18T06:20:23.908Z,10.96
2019-03-18T06:22:54.417Z,10.28
2019-03-18T06:25:24.959Z,10.55
2019-03-18T06:27:55.474Z,10.57
2019-03-18T06:30:26.021Z,10.13
2019-03-18T06:32:57.453Z,10.67
2019-03-18T06:35:28.907Z,9.56
2019-03-18T06:38:01.293Z,8.95
2019-03-18T06:40:31.846Z,9.31
2019-03-18T06:43:02.339Z,8.86
2019-03-18T06:45:33.810Z,8.76
2019-03-18T06:48:05.488Z,9.67
2019-03-18T06:50:36.082Z,9.86
2019-03-18T06:53:07.512Z,12.79
2019-03-18T06:55:37.773Z,13.72
2019-03-18T06:58:08.283Z,14.25
2019-03-18T07:00:38.808Z,13.38
2019-03-18T07:03:09.333Z,12.83
2019-03-18T07:05:40.793Z,12.85
2019-03-18T07:08:12.251Z,13.73
2019-03-18T07:10:42.779Z,13.67
2019-03-18T07:13:13.301Z,15.34
2019-03-18T07:15:43.837Z,13.34
2019-03-18T07:18:18.458Z,12.46
2019-03-18T07:20:46.540Z,13.63
2019-03-18T07:23:21.867Z,14.41
2019-03-18T07:25:56.361Z,16.40
2019-03-18T07:28:28.465Z,13.92
2019-03-18T07:30:59.001Z,15.02
2019-03-18T07:33:29.535Z,11.96
2019-03-18T07:36:00.974Z,10.97
2019-03-18T07:38:32.428Z,9.86
2019-03-18T07:41:03.894Z,9.66
2019-03-18T07:43:34.440Z,11.01
2019-03-18T07:46:04.958Z,10.70
2019-03-18T07:48:35.478Z,9.69
2019-03-18T07:51:05.993Z,10.56
2019-03-18T07:53:36.534Z,10.22
2019-03-18T07:56:07.124Z,9.24
2019-03-18T07:58:37.612Z,8.92
2019-03-18T08:01:08.121Z,9.02
2019-03-18T08:03:38.653Z,8.82
2019-03-18T08:06:09.213Z,9.47
2019-03-18T08:08:41.103Z,9.97
2019-03-18T08:11:11.808Z,10.67
2019-03-18T08:13:42.389Z,10.95
2019-03-18T08:16:12.869Z,10.92
2019-03-18T08:18:43.702Z,10.31
2019-03-18T08:21:15.457Z,10.25
2019-03-18T08:23:47.287Z,9.65
2019-03-18T08:26:17.767Z,9.49
2019-03-18T08:28:48.680Z,9.57
2019-03-18T08:31:19.174Z,10.57
2019-03-18T08:33:49.629Z,10.29
2019-03-18T08:36:20.781Z,9.64
2019-03-18T08:38:51.426Z,9.31
2019-03-18T08:41:21.950Z,8.89
2019-03-18T08:43:53.522Z,8.45
2019-03-18T08:46:26.416Z,8.32
2019-03-18T08:48:56.947Z,8.95
2019-03-18T08:51:27.671Z,8.87
2019-03-18T08:53:58.155Z,8.84
2019-03-18T08:56:31.135Z,9.03
2019-03-18T08:59:01.668Z,9.31
2019-03-18T09:01:33.125Z,9.39
2019-03-18T09:04:03.684Z,9.21
2019-03-18T09:06:35.103Z,9.27
2019-03-18T09:09:07.263Z,9.00
2019-03-18T09:11:37.697Z,8.66
2019-03-18T09:14:10.705Z,8.41
2019-03-18T09:16:43.669Z,8.15
2019-03-18T09:19:14.198Z,7.89
2019-03-18T09:21:44.710Z,7.77
2019-03-18T09:24:17.693Z,7.82
2019-03-18T09:27:01.593Z,7.87
2019-03-18T09:29:21.241Z,7.70
2019-03-18T09:31:51.827Z,7.68
2019-03-18T09:34:22.296Z,7.56
2019-03-18T09:36:52.824Z,7.43
2019-03-18T09:39:23.350Z,7.81
2019-03-18T09:41:53.880Z,7.90
2019-03-18T09:44:24.418Z,8.38
2019-03-18T09:46:54.970Z,8.67
2019-03-18T09:49:25.481Z,8.75
2019-03-18T09:51:56.018Z,8.65
2019-03-18T09:54:26.524Z,8.77
2019-03-18T09:56:57.077Z,8.77
2019-03-18T09:59:27.584Z,8.51
2019-03-18T10:02:01.500Z,8.74
2019-03-18T10:04:32.025Z,8.76
2019-03-18T10:07:03.503Z,9.12
2019-03-18T10:09:34.318Z,9.61
2019-03-18T10:12:04.855Z,9.45
2019-03-18T10:14:36.304Z,9.65
2019-03-18T10:17:09.901Z,9.82
2019-03-18T10:19:38.901Z,9.78
2019-03-18T10:22:09.416Z,9.76
2019-03-18T10:24:39.950Z,9.32
2019-03-18T10:27:10.490Z,9.14
2019-03-18T10:29:41.026Z,8.70
2019-03-18T10:32:11.548Z,8.89
2019-03-18T10:34:44.806Z,8.50
2019-03-18T10:37:16.276Z,8.28
2019-03-18T10:39:48.057Z,8.12
2019-03-18T10:42:18.574Z,8.10
2019-03-18T10:44:50.031Z,7.96
2019-03-18T10:47:20.547Z,7.96
2019-03-18T10:49:51.102Z,7.89
2019-03-18T10:52:21.617Z,7.84
2019-03-18T10:54:52.146Z,7.94
2019-03-18T10:57:23.589Z,8.07
2019-03-18T10:59:55.060Z,8.35
2019-03-18T11:02:25.572Z,8.52
2019-03-18T11:04:56.108Z,8.82
2019-03-18T11:07:26.631Z,8.90
2019-03-18T11:09:57.175Z,9.20
2019-03-18T11:12:27.685Z,9.15
2019-03-18T11:14:58.239Z,9.12
2019-03-18T11:17:29.664Z,9.28
2019-03-18T11:20:00.262Z,9.68
2019-03-18T11:22:31.652Z,10.01
2019-03-18T11:25:04.158Z,9.99
2019-03-18T11:27:35.779Z,9.75
2019-03-18T11:30:14.723Z,9.61
2019-03-18T11:32:45.136Z,9.39
2019-03-18T11:35:15.664Z,9.51
2019-03-18T11:37:47.117Z,9.47
2019-03-18T11:40:21.429Z,9.61
2019-03-18T11:42:51.862Z,9.84
2019-03-18T11:45:23.315Z,10.01
2019-03-18T11:47:53.859Z,10.18
2019-03-18T11:50:24.384Z,10.01
2019-03-18T11:52:54.659Z,10.03
2019-03-18T11:55:27.397Z,9.84
2019-03-18T11:57:57.807Z,9.76
2019-03-18T12:00:29.563Z,9.93
2019-03-18T12:03:01.016Z,9.87
2019-03-18T12:05:33.722Z,9.87
2019-03-18T12:08:04.235Z,9.73
2019-03-18T12:10:34.758Z,9.77
2019-03-18T12:13:06.228Z,9.74
2019-03-18T12:15:36.901Z,9.55
2019-03-18T12:18:08.628Z,9.47
2019-03-18T12:20:39.027Z,9.69
2019-03-18T12:23:09.570Z,9.56
2019-03-18T12:25:41.012Z,9.56
2019-03-18T12:28:11.679Z,9.42
2019-03-18T12:30:42.071Z,9.53
2019-03-18T12:33:12.620Z,9.62
2019-03-18T12:35:43.139Z,9.62
2019-03-18T12:38:13.661Z,9.51
2019-03-18T12:40:44.197Z,9.75
2019-03-18T12:43:15.182Z,9.84
2019-03-18T12:45:46.790Z,9.97
2019-03-18T12:48:18.577Z,9.88
2019-03-18T12:50:55.802Z,9.80
2019-03-18T12:53:22.187Z,9.76
2019-03-18T12:55:53.082Z,9.76
2019-03-18T12:58:24.658Z,9.65
2019-03-18T13:00:55.190Z,9.89
2019-03-18T13:03:25.745Z,9.88
2019-03-18T13:05:57.871Z,9.81
2019-03-18T13:08:29.580Z,9.95
2019-03-18T13:11:00.086Z,9.94
2019-03-18T13:13:30.624Z,9.97
2019-03-18T13:16:01.146Z,9.73
2019-03-18T13:18:32.588Z,9.81
2019-03-18T13:21:08.150Z,9.80
2019-03-18T13:23:35.357Z,9.80
2019-03-18T13:26:05.723Z,9.75
2019-03-18T13:28:39.519Z,9.57
2019-03-18T13:31:09.824Z,9.59
2019-03-18T13:33:41.801Z,9.41
2019-03-18T13:36:12.443Z,9.13
2019-03-18T13:38:42.987Z,9.00
2019-03-18T13:41:13.497Z,8.98
2019-03-18T13:43:44.062Z,8.93
2019-03-18T13:46:18.401Z,8.96
2019-03-18T13:48:49.406Z,9.09
2019-03-18T13:51:21.102Z,8.92
2019-03-18T13:53:51.765Z,8.92
2019-03-18T13:56:23.124Z,9.01
2019-03-18T13:58:53.680Z,9.13
2019-03-18T14:01:24.193Z,9.21
2019-03-18T14:03:55.979Z,9.26
2019-03-18T14:06:26.487Z,9.32
2019-03-18T14:08:59.136Z,9.22
2019-03-18T14:11:37.223Z,9.15
2019-03-18T14:14:09.469Z,9.26
2019-03-18T14:16:44.260Z,9.29
2019-03-18T14:19:17.546Z,9.21
2019-03-18T14:21:48.177Z,9.14
2019-03-18T14:24:24.339Z,9.28
2019-03-18T14:26:57.264Z,9.40
2019-03-18T14:30:01.733Z,9.36
2019-03-18T14:32:37.632Z,9.63
2019-03-18T14:35:11.931Z,9.79
2019-03-18T14:37:47.363Z,9.67
2019-03-18T14:40:23.656Z,9.61
2019-03-18T14:42:54.131Z,9.31
2019-03-18T14:45:28.506Z,9.22
2019-03-18T14:48:03.367Z,9.21
2019-03-18T14:50:40.170Z,9.28
2019-03-18T14:53:12.679Z,9.20
2019-03-18T14:55:43.112Z,9.36
2019-03-18T14:58:13.548Z,9.60
2019-03-18T15:00:44.061Z,9.88
2019-03-18T15:03:21.016Z,9.77
2019-03-18T15:05:52.519Z,9.70
2019-03-18T15:08:23.246Z,9.41
2019-03-18T15:10:54.820Z,9.26
2019-03-18T15:13:31.230Z,9.19
2019-03-18T15:16:08.549Z,9.06
2019-03-18T15:18:43.284Z,8.83
2019-03-18T15:21:27.087Z,8.77
2019-03-18T15:23:59.404Z,8.78
2019-03-18T15:26:30.855Z,8.89
2019-03-18T15:29:01.422Z,8.99
2019-03-18T15:31:32.940Z,9.10
2019-03-18T15:34:03.369Z,9.25
2019-03-18T15:36:33.865Z,9.20
2019-03-18T15:39:05.919Z,9.20
2019-03-18T15:41:36.689Z,9.24
2019-03-18T15:44:08.225Z,9.24
2019-03-18T15:46:41.820Z,9.23
2019-03-18T15:49:30.216Z,9.13
2019-03-18T15:52:11.000Z,9.06
2019-03-18T15:54:34.310Z,9.05
2019-03-18T15:57:05.748Z,8.98
2019-03-18T15:59:56.502Z,8.87
2019-03-18T16:02:36.736Z,8.79
2019-03-18T16:05:09.126Z,8.65
2019-03-18T16:07:42.541Z,8.47
2019-03-18T16:10:14.814Z,8.33
2019-03-18T16:12:45.228Z,8.18
2019-03-18T16:15:20.902Z,8.14
2019-03-18T16:17:52.901Z,7.98
2019-03-18T16:20:24.808Z,7.97
2019-03-18T16:22:55.304Z,7.96
2019-03-18T16:25:25.879Z,7.95
2019-03-18T16:27:56.500Z,7.98
2019-03-18T16:30:28.819Z,7.98
2019-03-18T16:32:59.347Z,7.96
2019-03-18T16:35:30.145Z,7.96
2019-03-18T16:38:01.613Z,7.93
2019-03-18T16:40:36.227Z,7.93
2019-03-18T16:43:09.216Z,7.95
2019-03-18T16:45:39.608Z,7.98
2019-03-18T16:48:11.082Z,7.98
2019-03-18T16:50:43.307Z,7.96
2019-03-18T16:53:13.780Z,7.97
2019-03-18T16:55:44.189Z,7.96
2019-03-18T16:58:14.508Z,7.86
2019-03-18T17:00:45.623Z,7.76
2019-03-18T17:03:18.036Z,7.71
2019-03-18T17:05:57.468Z,7.72
2019-03-18T17:08:28.534Z,7.64
2019-03-18T17:10:59.043Z,7.65
2019-03-18T17:13:30.463Z,7.59
2019-03-18T17:16:01.922Z,7.55
2019-03-18T17:18:32.845Z,7.61
2019-03-18T17:21:05.011Z,7.58
2019-03-18T17:23:35.364Z,7.47
2019-03-18T17:26:05.889Z,7.42
2019-03-18T17:28:36.428Z,7.25
2019-03-18T17:31:07.028Z,7.11
2019-03-18T17:33:39.069Z,7.07
2019-03-18T17:36:11.479Z,6.99
2019-03-18T17:38:41.927Z,6.92
2019-03-18T17:41:16.084Z,6.89
2019-03-18T17:43:47.577Z,6.88
2019-03-18T17:46:19.945Z,6.86
2019-03-18T17:48:51.811Z,6.84
2019-03-18T17:51:23.991Z,6.81
2019-03-18T17:53:54.489Z,6.79
2019-03-18T17:56:30.231Z,6.79
2019-03-18T17:58:56.934Z,6.83
2019-03-18T18:01:27.424Z,6.85
2019-03-18T18:03:59.860Z,6.89
2019-03-18T18:06:30.831Z,6.88
2019-03-18T18:09:01.432Z,6.75
2019-03-18T18:11:33.551Z,6.73
2019-03-18T18:14:04.095Z,6.67
2019-03-18T18:16:38.110Z,6.62
2019-03-18T18:19:22.439Z,6.57
2019-03-18T18:21:53.751Z,6.52
2019-03-18T18:24:25.342Z,6.46
2019-03-18T18:27:03.271Z,6.40
2019-03-18T18:29:35.714Z,6.29
2019-03-18T18:32:07.893Z,6.25
2019-03-18T18:34:39.485Z,6.11
2019-03-18T18:37:11.501Z,6.04
2019-03-18T18:39:41.940Z,5.96
2019-03-18T18:42:13.673Z,5.88
2019-03-18T18:44:44.261Z,5.82
2019-03-18T18:47:14.794Z,5.74
2019-03-18T18:49:47.017Z,5.69
2019-03-18T18:52:17.562Z,5.68
2019-03-18T18:54:49.117Z,5.66
2019-03-18T18:57:20.859Z,5.68
2019-03-18T18:59:51.205Z,5.66
2019-03-18T19:02:22.864Z,5.63
2019-03-18T19:04:53.387Z,5.61
2019-03-18T19:07:23.933Z,5.58
2019-03-18T19:09:54.524Z,5.57
2019-03-18T19:12:28.069Z,5.53
2019-03-18T19:15:06.532Z,5.49
2019-03-18T19:17:42.054Z,5.46
2019-03-18T19:20:19.834Z,5.44
2019-03-18T19:22:57.803Z,5.43
2019-03-18T19:25:29.644Z,5.42
2019-03-18T19:28:23.930Z,5.45
2019-03-18T19:30:56.276Z,5.45
2019-03-18T19:33:33.889Z,5.51
2019-03-18T19:36:05.674Z,5.53
2019-03-18T19:38:36.246Z,5.54
2019-03-18T19:41:08.673Z,5.55
2019-03-18T19:43:42.503Z,5.56
2019-03-18T19:46:17.328Z,5.55
2019-03-18T19:48:54.475Z,5.56
2019-03-18T19:51:27.696Z,5.51
2019-03-18T19:54:00.837Z,5.47
2019-03-18T19:56:43.229Z,5.47
2019-03-18T19:59:14.258Z,5.48
2019-03-18T20:01:45.859Z,5.55
2019-03-18T20:04:17.999Z,5.56
2019-03-18T20:06:52.590Z,5.54
2019-03-18T20:09:26.390Z,5.58
2019-03-18T20:11:58.353Z,5.59
2019-03-18T20:14:33.729Z,5.60
2019-03-18T20:17:08.121Z,5.63
2019-03-18T20:19:38.842Z,5.66
2019-03-18T20:22:12.155Z,5.66
2019-03-18T20:24:44.966Z,5.63
2019-03-18T20:27:16.263Z,5.65
2019-03-18T20:29:46.820Z,5.65
2019-03-18T20:32:17.351Z,5.70
2019-03-18T20:34:48.811Z,5.69
2019-03-18T20:37:19.350Z,5.70
2019-03-18T20:39:49.853Z,5.68
2019-03-18T20:42:20.404Z,5.66
2019-03-18T20:44:53.671Z,5.63
2019-03-18T20:47:23.592Z,5.57
2019-03-18T20:49:56.245Z,5.54
2019-03-18T20:52:26.821Z,5.54
2019-03-18T20:54:57.391Z,5.56
2019-03-18T20:57:28.772Z,5.56
2019-03-18T21:00:00.160Z,5.58
2019-03-18T21:02:35.075Z,5.60
2019-03-18T21:05:07.953Z,5.60
2019-03-18T21:07:51.774Z,5.59
2019-03-18T21:10:28.614Z,5.53
2019-03-18T21:13:02.164Z,5.52
2019-03-18T21:15:34.139Z,5.53
2019-03-18T21:18:05.577Z,5.50
2019-03-18T21:20:36.092Z,5.43
2019-03-18T21:23:06.653Z,5.37
2019-03-18T21:25:37.158Z,5.33
2019-03-18T21:28:07.497Z,5.23
2019-03-18T21:30:38.243Z,5.13
2019-03-18T21:33:08.847Z,5.07
2019-03-18T21:35:39.603Z,5.01
2019-03-18T21:38:10.625Z,4.96
2019-03-18T21:40:40.973Z,4.91
2019-03-18T21:43:11.519Z,4.85
2019-03-18T21:45:42.015Z,4.79
2019-03-18T21:48:12.563Z,4.72
2019-03-18T21:50:44.007Z,4.68
2019-03-18T21:53:14.556Z,4.65
2019-03-18T21:55:46.331Z,4.65
2019-03-18T21:58:25.083Z,4.61
2019-03-18T22:01:02.774Z,4.57
2019-03-18T22:03:35.185Z,4.52
2019-03-18T22:06:13.713Z,4.46
2019-03-18T22:08:47.647Z,4.42
2019-03-18T22:11:22.319Z,4.36
2019-03-18T22:13:52.863Z,4.28
2019-03-18T22:16:23.421Z,4.24
2019-03-18T22:18:53.933Z,4.14
2019-03-18T22:21:24.489Z,4.10
2019-03-18T22:23:55.277Z,4.03
2019-03-18T22:26:26.796Z,4.01
2019-03-18T22:28:57.287Z,4.02
2019-03-18T22:31:27.835Z,4.07
2019-03-18T22:33:58.340Z,4.10
2019-03-18T22:36:28.913Z,4.07
2019-03-18T22:38:59.724Z,4.13
2019-03-18T22:41:30.398Z,4.17
2019-03-18T22:44:01.991Z,4.28
2019-03-18T22:46:32.561Z,4.38
2019-03-18T22:49:03.124Z,4.50
2019-03-18T22:51:33.582Z,4.62
2019-03-18T22:54:05.026Z,4.72
2019-03-18T22:56:36.484Z,4.78
2019-03-18T22:59:07.922Z,4.83
2019-03-18T23:01:39.690Z,4.89
2019-03-18T23:04:10.013Z,4.94
2019-03-18T23:06:40.440Z,4.88
2019-03-18T23:09:12.257Z,4.74
2019-03-18T23:11:42.729Z,4.65
2019-03-18T23:14:13.255Z,4.52
2019-03-18T23:16:44.734Z,4.40
2019-03-18T23:19:15.231Z,4.28
2019-03-18T23:21:45.766Z,4.19
2019-03-18T23:24:17.220Z,4.08
2019-03-18T23:26:48.017Z,4.00
2019-03-18T23:29:19.505Z,3.94
2019-03-18T23:31:52.193Z,3.86
2019-03-18T23:34:22.714Z,3.81
2019-03-18T23:36:53.245Z,3.77
2019-03-18T23:39:24.695Z,3.72
2019-03-18T23:41:55.254Z,3.66
2019-03-18T23:44:28.226Z,3.64
2019-03-18T23:46:57.840Z,3.61
2019-03-18T23:49:28.353Z,3.61
2019-03-18T23:51:58.890Z,3.55
2019-03-18T23:54:29.406Z,3.55
2019-03-18T23:56:59.959Z,3.61
2019-03-18T23:59:31.697Z,3.64
